createdAt,value
2022-11-27T00:01:33.314Z,7.30
2022-11-27T00:04:01.319Z,6.10
2022-11-27T00:06:30.163Z,5.97
2022-11-27T00:08:58.968Z,5.75
2022-11-27T00:11:28.389Z,6.47
2022-11-27T00:13:58.413Z,6.18
2022-11-27T00:16:27.137Z,6.20
2022-11-27T00:18:58.018Z,5.90
2022-11-27T00:21:31.252Z,5.82
2022-11-27T00:24:00.533Z,6.43
2022-11-27T00:26:33.107Z,5.57
2022-11-27T00:29:04.279Z,5.63
2022-11-27T00:31:33.182Z,5.55
2022-11-27T00:34:03.191Z,6.03
2022-11-27T00:36:32.639Z,6.03
2022-11-27T00:39:03.781Z,6.15
2022-11-27T00:41:33.995Z,6.10
2022-11-27T00:44:01.962Z,6.43
2022-11-27T00:46:31.413Z,6.22
2022-11-27T00:49:00.840Z,6.05
2022-11-27T00:51:30.731Z,6.00
2022-11-27T00:53:58.897Z,5.72
2022-11-27T00:56:29.223Z,5.68
2022-11-27T00:58:57.902Z,5.65
2022-11-27T01:01:37.056Z,5.65
2022-11-27T01:04:06.228Z,5.72
2022-11-27T01:06:35.333Z,5.32
2022-11-27T01:09:03.432Z,5.28
2022-11-27T01:11:32.730Z,4.95
2022-11-27T01:14:04.547Z,4.03
2022-11-27T01:16:33.460Z,4.90
2022-11-27T01:19:02.002Z,3.72
2022-11-27T01:21:32.428Z,3.92
2022-11-27T01:24:00.909Z,4.40
2022-11-27T01:26:29.206Z,3.65
2022-11-27T01:28:57.699Z,3.92
2022-11-27T01:31:27.573Z,4.32
2022-11-27T01:33:58.203Z,4.38
2022-11-27T01:36:26.600Z,3.65
2022-11-27T01:38:54.754Z,4.00
2022-11-27T01:41:30.524Z,4.10
2022-11-27T01:44:00.372Z,4.90
2022-11-27T01:46:44.451Z,4.50
2022-11-27T01:49:31.026Z,5.63
2022-11-27T01:54:33.650Z,5.85
2022-11-27T01:57:05.287Z,4.82
2022-11-27T01:59:33.220Z,5.40
2022-11-27T02:02:01.759Z,5.30
2022-11-27T02:04:30.603Z,4.88
2022-11-27T02:06:59.532Z,4.75
2022-11-27T02:09:29.779Z,4.78
2022-11-27T02:12:00.440Z,5.75
2022-11-27T02:14:39.308Z,5.18
2022-11-27T02:17:20.632Z,5.95
2022-11-27T02:20:12.141Z,5.03
2022-11-27T02:22:49.010Z,4.30
2022-11-27T02:25:44.125Z,3.85
2022-11-27T02:28:23.422Z,4.03
2022-11-27T02:31:02.051Z,3.55
2022-11-27T02:33:30.419Z,4.57
2022-11-27T02:36:06.660Z,3.60
2022-11-27T02:38:40.378Z,4.32
2022-11-27T02:41:10.187Z,4.03
2022-11-27T02:43:41.756Z,4.70
2022-11-27T02:46:12.380Z,4.40
2022-11-27T02:48:49.837Z,4.63
2022-11-27T02:51:20.653Z,4.55
2022-11-27T02:53:56.905Z,5.05
2022-11-27T02:56:26.907Z,4.15
2022-11-27T02:58:56.693Z,4.43
2022-11-27T03:01:24.697Z,5.03
2022-11-27T03:03:55.594Z,5.53
2022-11-27T03:06:45.391Z,4.85
2022-11-27T03:09:23.338Z,5.32
2022-11-27T03:11:51.226Z,5.63
2022-11-27T03:14:24.616Z,4.90
2022-11-27T03:16:53.179Z,4.72
2022-11-27T03:19:44.230Z,4.45
2022-11-27T03:22:12.083Z,4.68
2022-11-27T03:24:40.310Z,4.93
2022-11-27T03:27:08.489Z,4.78
2022-11-27T03:29:48.040Z,4.07
2022-11-27T03:32:18.278Z,6.18
2022-11-27T03:34:46.160Z,4.47
2022-11-27T03:37:14.205Z,4.90
2022-11-27T03:39:42.887Z,5.13
2022-11-27T03:42:42.115Z,5.32
2022-11-27T03:45:22.464Z,5.55
2022-11-27T03:48:18.389Z,5.22
2022-11-27T03:51:16.126Z,5.32
2022-11-27T03:53:52.723Z,5.18
2022-11-27T03:56:49.133Z,5.20
2022-11-27T03:59:21.023Z,5.88
2022-11-27T04:01:49.571Z,5.07
2022-11-27T04:04:17.418Z,6.00
2022-11-27T04:06:45.278Z,5.03
2022-11-27T04:09:13.090Z,4.00
2022-11-27T04:11:40.878Z,4.25
2022-11-27T04:14:08.783Z,4.10
2022-11-27T04:16:37.161Z,3.83
2022-11-27T04:19:05.055Z,4.40
2022-11-27T04:21:33.115Z,3.95
2022-11-27T04:24:01.100Z,3.70
2022-11-27T04:26:28.951Z,4.30
2022-11-27T04:28:56.871Z,3.90
2022-11-27T04:31:24.707Z,4.30
2022-11-27T04:33:52.688Z,4.13
2022-11-27T04:36:20.867Z,3.72
2022-11-27T04:38:48.824Z,4.30
2022-11-27T04:41:17.646Z,4.47
2022-11-27T04:43:45.513Z,4.85
2022-11-27T04:46:13.427Z,5.07
2022-11-27T04:48:41.189Z,4.63
2022-11-27T04:51:09.034Z,4.57
2022-11-27T04:53:37.708Z,5.43
2022-11-27T04:56:05.597Z,9.70
2022-11-27T04:58:35.044Z,4.45
2022-11-27T05:01:02.862Z,5.25
2022-11-27T05:03:31.120Z,4.30
2022-11-27T05:05:58.981Z,5.05
2022-11-27T05:08:28.777Z,4.95
2022-11-27T05:11:15.573Z,4.97
2022-11-27T05:13:43.851Z,4.55
2022-11-27T05:16:11.755Z,4.60
2022-11-27T05:18:39.934Z,4.20
2022-11-27T05:21:08.734Z,4.28
2022-11-27T05:23:36.762Z,4.20
2022-11-27T05:26:04.813Z,4.68
2022-11-27T05:28:33.539Z,4.20
2022-11-27T05:31:01.717Z,4.30
2022-11-27T05:33:29.704Z,4.07
2022-11-27T05:35:57.509Z,4.88
2022-11-27T05:38:25.590Z,4.00
2022-11-27T05:40:53.489Z,3.58
2022-11-27T05:43:21.463Z,3.83
2022-11-27T05:45:49.478Z,3.95
2022-11-27T05:48:17.565Z,3.65
2022-11-27T05:50:45.417Z,4.13
2022-11-27T05:53:14.709Z,3.70
2022-11-27T05:55:42.622Z,3.42
2022-11-27T05:58:10.604Z,3.10
2022-11-27T06:00:39.973Z,3.95
2022-11-27T06:03:08.009Z,4.00
2022-11-27T06:05:40.127Z,4.40
2022-11-27T06:08:07.949Z,3.65
2022-11-27T06:10:38.674Z,4.50
2022-11-27T06:13:06.669Z,4.30
2022-11-27T06:15:37.062Z,4.90
2022-11-27T06:18:05.045Z,3.85
2022-11-27T06:20:33.186Z,4.32
2022-11-27T06:23:01.100Z,3.85
2022-11-27T06:25:28.993Z,4.18
2022-11-27T06:27:57.975Z,3.83
2022-11-27T06:30:26.137Z,4.20
2022-11-27T06:32:54.581Z,4.50
2022-11-27T06:35:22.947Z,3.97
2022-11-27T06:37:51.258Z,7.18
2022-11-27T06:40:22.181Z,5.32
2022-11-27T06:42:50.257Z,6.43
2022-11-27T06:45:19.806Z,5.05
2022-11-27T06:47:49.302Z,6.70
2022-11-27T06:50:18.239Z,5.03
2022-11-27T06:52:47.221Z,6.35
2022-11-27T08:26:48.037Z,5.13
2022-11-27T08:29:16.673Z,4.45
2022-11-27T08:31:44.752Z,4.88
2022-11-27T08:34:13.296Z,4.50
2022-11-27T08:36:41.317Z,5.25
2022-11-27T08:39:10.938Z,4.65
2022-11-27T08:41:38.926Z,4.97
2022-11-27T08:44:09.661Z,5.78
2022-11-27T08:46:37.687Z,5.90
2022-11-27T08:49:05.511Z,7.72
2022-11-27T08:51:37.380Z,5.80
2022-11-27T08:54:05.397Z,4.60
2022-11-27T08:56:33.152Z,5.15
2022-11-27T08:59:01.072Z,4.13
2022-11-27T09:01:30.208Z,4.20
2022-11-27T09:03:58.459Z,4.57
2022-11-27T09:06:31.145Z,4.65
2022-11-27T09:09:03.361Z,4.18
2022-11-27T09:11:32.360Z,4.78
2022-11-27T09:14:01.189Z,4.40
2022-11-27T09:16:30.755Z,4.10
2022-11-27T09:18:59.050Z,3.53
2022-11-27T09:21:28.758Z,3.58
2022-11-27T09:23:59.024Z,4.03
2022-11-27T09:26:27.218Z,4.07
2022-11-27T09:28:55.304Z,4.28
2022-11-27T09:31:23.325Z,4.50
2022-11-27T09:33:54.353Z,4.55
2022-11-27T09:36:24.757Z,5.00
2022-11-27T09:38:52.688Z,4.63
2022-11-27T09:41:39.878Z,4.55
2022-11-27T09:46:52.543Z,4.28
2022-11-27T09:49:36.803Z,4.40
2022-11-27T09:52:38.602Z,5.97
2022-11-27T09:55:26.274Z,4.63
2022-11-27T09:58:13.893Z,4.50
2022-11-27T10:00:44.729Z,3.97
2022-11-27T10:03:20.640Z,3.38
2022-11-27T10:06:09.057Z,4.07
2022-11-27T10:08:51.586Z,3.58
2022-11-27T10:11:44.530Z,3.53
2022-11-27T10:14:21.386Z,4.10
2022-11-27T10:17:03.339Z,3.92
2022-11-27T10:19:46.808Z,3.17
2022-11-27T10:22:30.553Z,3.28
2022-11-27T10:25:10.514Z,3.58
2022-11-27T10:27:43.342Z,3.30
2022-11-27T10:30:16.895Z,3.67
2022-11-27T10:33:01.259Z,4.07
2022-11-27T10:35:30.724Z,4.40
2022-11-27T10:38:07.060Z,3.88
2022-11-27T10:40:57.422Z,4.72
2022-11-27T10:43:26.343Z,4.32
2022-11-27T10:45:59.193Z,4.47
2022-11-27T10:48:29.566Z,4.55
2022-11-27T10:51:00.408Z,4.80
2022-11-27T10:53:38.678Z,5.05
2022-11-27T10:56:14.175Z,4.78
2022-11-27T10:58:52.675Z,4.85
2022-11-27T11:03:49.546Z,6.63
2022-11-27T11:07:07.021Z,5.57
2022-11-27T11:09:35.177Z,5.38
2022-11-27T11:12:21.813Z,5.60
2022-11-27T11:14:59.271Z,7.93
2022-11-27T11:17:28.609Z,6.70
2022-11-27T11:20:01.990Z,7.75
2022-11-27T11:22:31.156Z,8.52
2022-11-27T11:25:03.944Z,8.50
2022-11-27T11:27:32.533Z,7.97
2022-11-27T11:30:05.250Z,8.63
2022-11-27T11:32:36.617Z,9.50
2022-11-27T11:35:25.518Z,9.18
2022-11-27T11:37:53.990Z,8.63
2022-11-27T11:40:26.571Z,8.27
2022-11-27T11:43:02.692Z,8.70
2022-11-27T11:45:34.362Z,9.52
2022-11-27T11:48:25.427Z,8.93
2022-11-27T11:51:01.292Z,8.88
2022-11-27T11:53:55.381Z,9.48
2022-11-27T11:56:40.430Z,11.13
2022-11-27T11:59:17.866Z,11.07
2022-11-27T12:02:24.311Z,10.77
2022-11-27T12:05:14.954Z,11.43
2022-11-27T12:08:01.482Z,10.77
2022-11-27T12:10:55.533Z,9.65
2022-11-27T12:13:45.199Z,8.50
2022-11-27T12:16:24.961Z,10.35
2022-11-27T12:19:08.457Z,10.90
2022-11-27T12:21:53.970Z,8.98
2022-11-27T12:24:46.438Z,12.48
2022-11-27T12:27:32.382Z,11.82
2022-11-27T12:30:06.476Z,11.27
2022-11-27T12:32:53.750Z,10.73
2022-11-27T12:35:40.292Z,11.35
2022-11-27T12:38:19.219Z,11.25
2022-11-27T12:41:21.253Z,10.77
2022-11-27T12:43:52.141Z,12.82
2022-11-27T12:46:24.722Z,14.65
2022-11-27T12:49:01.539Z,9.40
2022-11-27T12:51:50.564Z,12.18
2022-11-27T17:48:35.178Z,17.48
2022-11-27T17:51:07.412Z,17.08
2022-11-27T17:53:35.385Z,18.60
2022-11-27T17:56:15.876Z,17.92
2022-11-27T17:58:44.043Z,17.33
2022-11-27T18:01:18.638Z,16.17
2022-11-27T18:03:48.219Z,15.48
2022-11-27T18:06:18.779Z,16.20
2022-11-27T18:08:49.543Z,17.17
2022-11-27T18:11:21.255Z,18.45
2022-11-27T18:13:50.083Z,26.00
2022-11-27T18:16:24.011Z,17.98
2022-11-27T18:18:54.370Z,17.98
2022-11-27T18:21:24.697Z,18.02
2022-11-27T18:24:21.837Z,22.77
2022-11-27T18:29:34.093Z,21.70
2022-11-27T18:32:03.421Z,21.15
2022-11-27T18:34:35.323Z,21.42
2022-11-27T18:37:06.773Z,22.52
2022-11-27T18:39:45.133Z,23.55
2022-11-27T18:42:14.494Z,23.33
2022-11-27T18:44:45.097Z,23.17
2022-11-27T18:47:14.918Z,23.98
2022-11-27T18:49:49.780Z,24.17
2022-11-27T18:52:20.693Z,21.92
2022-11-27T18:54:49.053Z,19.85
2022-11-27T18:57:19.657Z,21.02
2022-11-27T18:59:49.117Z,19.27
2022-11-27T19:02:17.640Z,19.88
2022-11-27T19:04:48.646Z,18.63
2022-11-27T19:07:18.765Z,20.95
2022-11-27T19:09:47.110Z,20.08
2022-11-27T19:12:15.926Z,21.17
2022-11-27T19:14:44.291Z,20.85
2022-11-27T19:17:33.560Z,20.48
2022-11-27T19:20:01.782Z,20.38
2022-11-27T19:22:32.309Z,20.40
2022-11-27T19:25:04.200Z,20.08
2022-11-27T19:27:33.116Z,21.60
2022-11-27T19:30:01.606Z,23.65
2022-11-27T19:32:34.250Z,22.90
2022-11-27T19:35:07.168Z,21.13
2022-11-27T19:37:37.070Z,21.50
2022-11-27T19:40:06.565Z,19.63
2022-11-27T19:42:35.105Z,22.55
2022-11-27T19:45:03.193Z,19.58
2022-11-27T19:47:33.631Z,21.25
2022-11-27T19:50:09.636Z,21.92
2022-11-27T19:52:38.008Z,22.23
2022-11-27T19:55:06.781Z,21.67
2022-11-27T19:57:34.783Z,21.35
2022-11-27T20:00:04.283Z,20.85
2022-11-27T20:02:42.751Z,21.70
2022-11-27T20:05:15.077Z,20.92
2022-11-27T20:07:44.549Z,20.33
2022-11-27T20:10:13.222Z,20.48
2022-11-27T20:12:42.497Z,21.65
2022-11-27T20:15:14.986Z,19.45
2022-11-27T20:17:44.205Z,21.15
2022-11-27T20:20:13.544Z,22.67
2022-11-27T20:22:44.575Z,21.13
2022-11-27T20:25:20.858Z,22.55
2022-11-27T20:27:53.042Z,19.63
2022-11-27T20:30:34.429Z,20.80
2022-11-27T20:33:07.776Z,19.50
2022-11-27T20:35:42.028Z,20.88
2022-11-27T20:38:11.859Z,20.03
2022-11-27T20:40:42.356Z,20.40
2022-11-27T20:43:14.264Z,20.10
2022-11-27T20:45:42.868Z,20.02
2022-11-27T20:48:31.906Z,20.00
2022-11-27T20:51:10.485Z,21.42
2022-11-27T20:53:41.646Z,22.30
2022-11-27T20:56:14.628Z,20.88
2022-11-27T20:58:43.914Z,20.67
2022-11-27T21:01:27.590Z,19.80
2022-11-27T21:03:56.712Z,20.35
2022-11-27T21:06:30.112Z,18.92
2022-11-27T21:09:01.156Z,19.10
2022-11-27T21:11:31.768Z,18.13
2022-11-27T21:14:06.024Z,17.42
2022-11-27T21:16:58.037Z,18.17
2022-11-27T21:19:32.482Z,19.85
2022-11-27T21:22:01.156Z,18.50
2022-11-27T21:24:30.031Z,18.92
2022-11-27T21:26:58.353Z,18.83
2022-11-27T21:29:29.120Z,19.67
2022-11-27T21:31:57.699Z,19.88
2022-11-27T21:34:29.589Z,20.13
2022-11-27T21:37:00.245Z,21.10
2022-11-27T21:39:28.299Z,20.23
2022-11-27T21:41:56.618Z,21.27
2022-11-27T21:44:24.957Z,21.08
2022-11-27T21:46:53.768Z,21.48
2022-11-27T21:49:21.822Z,21.20
2022-11-27T21:51:54.995Z,20.70
2022-11-27T21:54:32.241Z,20.98
2022-11-27T21:57:01.619Z,22.52
2022-11-27T21:59:34.324Z,22.50
2022-11-27T22:02:02.830Z,22.42
2022-11-27T22:04:31.433Z,23.10
2022-11-27T22:06:59.406Z,22.35
2022-11-27T22:09:38.230Z,23.35
2022-11-27T22:12:06.164Z,23.80
2022-11-27T22:14:35.828Z,23.70
2022-11-27T22:17:03.870Z,24.25
2022-11-27T22:19:32.178Z,23.42
2022-11-27T22:22:03.240Z,23.50
2022-11-27T22:24:31.289Z,20.50
2022-11-27T22:26:59.650Z,21.52
2022-11-27T22:29:30.173Z,21.20
2022-11-27T22:31:58.867Z,23.17
2022-11-27T22:34:27.095Z,22.30
2022-11-27T22:37:06.021Z,20.95
2022-11-27T22:39:35.320Z,22.17
2022-11-27T22:42:03.628Z,21.13
2022-11-27T22:44:39.425Z,21.67
2022-11-27T22:47:07.383Z,20.63
2022-11-27T22:49:35.448Z,20.35
2022-11-27T22:52:03.269Z,19.58
2022-11-27T22:54:31.076Z,19.63
2022-11-27T22:56:58.896Z,19.00
2022-11-27T22:59:34.819Z,19.98
2022-11-27T23:02:06.024Z,19.42
2022-11-27T23:04:38.335Z,20.35
2022-11-27T23:07:06.443Z,19.90
2022-11-27T23:09:35.126Z,20.33
2022-11-27T23:12:03.035Z,19.40
2022-11-27T23:14:32.362Z,20.50
2022-11-27T23:17:00.328Z,19.90
2022-11-27T23:19:28.190Z,19.45
2022-11-27T23:21:56.172Z,20.95
2022-11-27T23:24:24.029Z,21.70
2022-11-27T23:26:51.793Z,20.20
2022-11-27T23:29:21.518Z,19.25
2022-11-27T23:31:49.429Z,21.13
2022-11-27T23:34:17.233Z,21.52
2022-11-27T23:36:45.142Z,20.08
2022-11-27T23:39:14.320Z,21.50
2022-11-27T23:41:42.205Z,22.05
2022-11-27T23:44:10.381Z,21.90
2022-11-27T23:46:38.310Z,21.85
2022-11-27T23:49:06.285Z,21.10
2022-11-27T23:51:34.756Z,21.35
2022-11-27T23:54:05.754Z,22.48
2022-11-27T23:56:34.082Z,23.13
2022-11-27T23:59:02.228Z,24.23
